Latest Weather Observations for Dwellingup

IDW60801

Issued at 10:02 am WST Monday 30 March 2015 (issued every 30 minutes, with the page automatically refreshed every 10 minutes)

About weather observations | Map of weather stations | Latest weather observations for WA | Other Formats
Station Details ID: 009538 Name: DWELLINGUP Lat: -32.71 Lon: 116.06 Height: 267.0 m
Data from the previous 72 hours. | See also: Recent months at Dwellingup
Date/Time
WST
Temp
°C
App
Temp
°C
Dew
Point
Rel
Hum
%
Delta-T
°C
Wind Press
QNH
hPa
Press
MSL
hPa
Rain
since 9 am
mm
Dir
 
Spd
km/h
Gust
km/h
Spd
kts
Gust
kts
30/10:00am 24.6 24.0 10.5 41 7.9 N 4 9 2 5 1017.2 1016.3 0.0
30/09:30am 23.0 22.4 10.4 45 7.0 NE 4 11 2 6 1017.3 1016.4 0.0
30/09:00am 20.5 19.6 10.6 53 5.4 NE 6 9 3 5 1017.4 1016.5 0.0
30/08:30am 17.9 17.0 10.5 62 4.0 ESE 6 9 3 5 1017.4 1016.5 0.0
30/08:00am 15.7 13.8 10.5 71 2.8 SSE 11 13 6 7 1017.2 1016.3 0.0
30/07:30am 13.5 11.5 10.1 80 1.8 SSE 11 11 6 6 1017.1 1016.2 0.0
30/07:00am 12.0 9.4 9.2 83 1.4 SSE 13 15 7 8 1017.1 1016.2 0.0
30/06:30am 12.0 8.9 9.0 82 1.5 SE 15 19 8 10 1017.0 1016.1 0.0
30/06:00am 12.1 8.7 9.1 82 1.5 SE 17 20 9 11 1016.8 1015.9 0.0
30/05:30am 12.2 8.8 9.0 81 1.6 SE 17 20 9 11 1016.6 1015.7 0.0
30/05:00am 12.7 9.3 9.2 79 1.8 SE 17 20 9 11 1016.6 1015.7 0.0
30/04:30am 12.5 9.5 9.3 81 1.6 SSE 15 19 8 10 1016.5 1015.6 0.0
30/04:00am 12.3 9.2 9.0 80 1.7 SE 15 19 8 10 1016.6 1015.7 0.0
30/03:30am 12.7 9.3 9.2 79 1.8 SE 17 19 9 10 1016.5 1015.6 0.0
30/03:00am 13.3 10.0 9.4 77 2.0 ESE 17 19 9 10 1016.8 1015.9 0.0
30/02:30am 13.7 10.7 9.4 75 2.2 SE 15 19 8 10 1017.1 1016.2 0.0
30/02:00am 14.1 10.7 9.3 73 2.5 SE 17 20 9 11 1017.3 1016.4 0.0
30/01:30am 14.3 11.4 9.5 73 2.5 SE 15 19 8 10 1017.4 1016.5 0.0
30/01:00am 14.6 11.7 9.8 73 2.5 ESE 15 20 8 11 1017.7 1016.8 0.0
30/12:30am 14.5 11.2 9.7 73 2.5 SE 17 19 9 10 1017.8 1016.9 0.0
30/12:00am 14.6 11.4 10.0 74 2.4 SE 17 20 9 11 1018.0 1017.1 0.0
 
Date/Time
WST
Temp
°C
App
Temp
°C
Dew
Point
Rel
Hum
%
Delta-T
°C
Wind Press
QNH
hPa
Press
MSL
hPa
Rain
since 9 am
mm
Dir
 
Spd
km/h
Gust
km/h
Spd
kts
Gust
kts
29/11:30pm 14.9 12.1 10.1 73 2.5 SE 15 17 8 9 1018.1 1017.2 0.0
29/11:00pm 15.4 12.6 10.0 70 2.9 SE 15 19 8 10 1018.3 1017.4 0.0
29/10:30pm 16.0 13.3 10.3 69 3.0 SSE 15 17 8 9 1018.6 1017.7 0.0
29/10:00pm 16.6 13.6 10.5 67 3.3 SSE 17 19 9 10 1018.9 1018.0 0.0
29/09:30pm 16.8 14.5 10.4 66 3.4 SE 13 15 7 8 1019.2 1018.3 0.0
29/09:00pm 17.5 15.2 10.6 64 3.7 SSE 13 15 7 8 1019.2 1018.3 0.0
29/08:30pm 17.7 15.5 10.8 64 3.8 S 13 19 7 10 1019.2 1018.3 0.0
29/08:00pm 18.3 16.1 10.7 61 4.1 S 13 17 7 9 1019.2 1018.3 0.0
29/07:30pm 19.7 17.9 10.7 56 4.9 S 11 15 6 8 1019.1 1018.2 0.0
29/07:00pm 20.2 17.9 10.3 53 5.4 SW 13 20 7 11 1018.9 1018.0 0.0
29/06:30pm 21.7 19.0 10.2 48 6.3 SW 15 24 8 13 1018.6 1017.7 0.0
29/06:00pm 23.0 20.5 9.8 43 7.3 WSW 13 20 7 11 1018.5 1017.6 0.0
29/05:30pm 24.3 21.6 9.1 38 8.3 WSW 13 24 7 13 1018.5 1017.6 0.0
29/05:00pm 25.3 23.2 9.6 37 8.7 WSW 11 20 6 11 1018.4 1017.5 0.0
29/04:30pm 26.0 23.3 8.9 34 9.4 WSW 13 24 7 13 1018.3 1017.4 0.0
29/04:00pm 26.4 24.2 9.3 34 9.5 W 11 17 6 9 1018.3 1017.4 0.0
29/03:30pm 28.1 25.7 9.9 32 10.3 W 13 26 7 14 1018.3 1017.4 0.0
29/03:00pm 28.3 26.2 5.8 24 11.9 WNW 6 17 3 9 1018.3 1017.4 0.0
29/02:30pm 28.2 24.9 6.3 25 11.7 NNE 13 22 7 12 1018.7 1017.8 0.0
29/02:00pm 27.3 23.9 6.1 26 11.2 NNE 13 19 7 10 1018.8 1017.9 0.0
29/01:30pm 27.5 25.1 6.8 27 11.1 NE 9 17 5 9 1019.1 1018.2 0.0
29/01:00pm 27.2 24.7 6.6 27 10.9 NE 9 15 5 8 1019.5 1018.7 0.0
29/12:30pm 26.6 24.2 7.1 29 10.4 NW 9 17 5 9 1019.9 1019.0 0.0
29/12:00pm 26.8 25.0 7.8 30 10.3 NE 7 13 4 7 1020.3 1019.4 0.0
29/11:30am 25.6 23.6 8.6 34 9.3 NNE 9 15 5 8 1020.8 1019.9 0.0
29/11:00am 25.3 24.1 11.5 42 7.9 NE 9 20 5 11 1021.2 1020.3 0.0
29/10:30am 23.7 22.1 11.4 46 7.0 NE 11 15 6 8 1021.4 1020.5 0.0
29/10:00am 22.6 21.7 12.5 53 5.8 E 9 15 5 8 1021.8 1020.9 0.0
29/09:30am 20.6 19.6 12.3 59 4.7 ENE 9 15 5 8 1021.9 1021.0 0.0
29/09:00am 18.9 18.0 12.6 67 3.6 E 9 17 5 9 1022.0 1021.1 0.0
29/08:30am 16.9 15.9 12.2 74 2.6 ESE 9 15 5 8 1022.1 1021.2 0.0
29/08:00am 14.5 12.7 12.0 85 1.4 ESE 13 17 7 9 1022.0 1021.1 0.0
29/07:30am 12.7 10.2 11.1 90 0.9 SE 15 19 8 10 1021.8 1020.9 0.0
29/07:00am 11.5 8.7 9.9 90 0.8 SE 15 19 8 10 1021.6 1020.7 0.0
29/06:30am 11.4 8.5 9.8 90 0.8 SE 15 19 8 10 1021.4 1020.5 0.0
29/06:00am 11.5 8.6 9.8 89 0.9 SE 15 20 8 11 1021.3 1020.4 0.0
29/05:30am 11.7 8.8 9.8 88 1.0 SE 15 19 8 10 1021.1 1020.2 0.0
29/05:00am 12.1 9.0 10.2 88 1.0 SE 17 20 9 11 1021.1 1020.2 0.0
29/04:30am 12.4 9.3 10.3 87 1.1 SE 17 20 9 11 1020.9 1020.0 0.0
29/04:00am 12.6 9.6 10.5 87 1.1 SE 17 20 9 11 1021.0 1020.1 0.0
29/03:30am 13.0 10.0 10.7 86 1.2 SE 17 26 9 14 1021.0 1020.1 0.0
29/03:00am 13.3 10.0 10.8 85 1.3 SE 19 26 10 14 1020.9 1020.0 0.0
29/02:30am 13.8 10.9 11.0 83 1.5 SE 17 26 9 14 1020.9 1020.0 0.0
29/02:00am 14.0 10.7 11.0 82 1.6 SE 19 26 10 14 1020.8 1019.9 0.0
29/01:30am 14.6 11.4 11.2 80 1.8 SE 19 26 10 14 1021.0 1020.1 0.0
29/01:00am 14.7 11.6 11.5 81 1.7 SE 19 26 10 14 1021.0 1020.1 0.0
29/12:30am 14.3 11.5 11.5 83 1.5 SE 17 26 9 14 1021.2 1020.3 0.0
29/12:00am 14.7 11.5 11.8 83 1.6 SE 20 28 11 15 1021.1 1020.2 0.0
 
Date/Time
WST
Temp
°C
App
Temp
°C
Dew
Point
Rel
Hum
%
Delta-T
°C
Wind Press
QNH
hPa
Press
MSL
hPa
Rain
since 9 am
mm
Dir
 
Spd
km/h
Gust
km/h
Spd
kts
Gust
kts
28/11:30pm 14.5 11.9 12.0 85 1.4 SSE 17 24 9 13 1021.1 1020.2 0.0
28/11:00pm 14.3 11.6 11.8 85 1.4 SSE 17 20 9 11 1021.2 1020.3 0.0
28/10:30pm 14.4 12.5 11.7 84 1.5 SSE 13 19 7 10 1021.2 1020.3 0.0
28/10:00pm 14.7 13.1 11.7 82 1.6 SSE 11 15 6 8 1021.4 1020.5 0.0
28/09:30pm 15.2 13.7 11.8 80 1.9 S 11 15 6 8 1021.4 1020.5 0.0
28/09:00pm 16.0 14.2 12.0 77 2.2 SSW 13 17 7 9 1021.3 1020.4 0.0
28/08:30pm 17.0 15.6 12.1 73 2.7 S 11 17 6 9 1021.1 1020.2 0.0
28/08:00pm 17.6 15.9 12.3 71 3.0 SSW 13 22 7 12 1021.1 1020.2 0.0
28/07:30pm 18.1 16.7 12.3 69 3.3 SW 11 17 6 9 1020.8 1019.9 0.0
28/07:00pm 18.5 16.4 12.3 67 3.5 SW 15 28 8 15 1020.5 1019.6 0.0
28/06:30pm 19.2 16.7 12.2 64 3.9 SW 17 28 9 15 1020.3 1019.4 0.0
28/06:00pm 20.1 17.4 11.8 59 4.7 SW 17 30 9 16 1019.9 1019.0 0.0
28/05:30pm 21.1 18.3 11.2 53 5.5 SW 17 24 9 13 1019.8 1018.9 0.0
28/05:00pm 22.2 19.4 11.3 50 6.1 SW 17 26 9 14 1019.7 1018.8 0.0
28/04:30pm 22.9 20.0 11.0 47 6.7 SW 17 28 9 15 1019.3 1018.4 0.0
28/04:00pm 23.8 21.7 11.2 45 7.1 SSW 13 24 7 13 1019.2 1018.3 0.0
28/03:30pm 24.3 22.1 9.5 39 8.2 SW 11 17 6 9 1019.3 1018.4 0.0
28/03:00pm 24.4 22.7 9.9 40 8.0 SW 9 17 5 9 1019.4 1018.5 0.0
28/02:30pm 24.2 22.8 9.4 39 8.1 WSW 7 13 4 7 1019.5 1018.7 0.0
28/02:00pm 24.2 23.5 10.1 41 7.8 WSW 4 15 2 8 1019.7 1018.8 0.0
28/01:30pm 24.5 22.4 9.6 39 8.2 SSW 11 17 6 9 1020.0 1019.1 0.0
28/01:00pm 23.9 22.9 10.9 44 7.3 NE 7 11 4 6 1020.3 1019.4 0.0
28/12:30pm 22.4 21.8 10.5 47 6.6 NW 4 9 2 5 1020.8 1019.9 0.0
28/12:00pm 21.4 20.7 11.4 53 5.6 S 6 13 3 7 1021.3 1020.4 0.0
28/11:30am 21.1 20.2 11.4 54 5.4 SSE 7 13 4 7 1021.7 1020.8 0.0
28/11:00am 19.4 18.8 12.2 63 4.0 ESE 7 13 4 7 1021.9 1021.0 0.0
28/10:30am 17.8 16.8 12.3 70 3.1 SSE 9 15 5 8 1022.1 1021.2 0.0
28/10:00am 16.0 14.3 12.6 80 1.9 SE 13 19 7 10 1022.1 1021.2 0.0
28/09:30am 14.6 11.6 12.1 85 1.4 SE 19 28 10 15 1022.4 1021.5 0.0
28/09:00am 13.9 10.7 11.2 84 1.4 SE 19 28 10 15 1022.5 1021.6 0.0
28/08:30am 13.2 10.0 11.1 87 1.1 SE 19 26 10 14 1022.2 1021.3 0.0
28/08:00am 12.4 9.8 10.6 89 0.9 SSE 15 20 8 11 1022.0 1021.1 0.0
28/07:30am 10.6 8.4 9.2 91 0.7 SSE 11 17 6 9 1021.7 1020.8 0.0
28/07:00am 9.6 6.3 8.2 91 0.7 SSE 15 19 8 10 1021.4 1020.5 0.0
28/06:30am 9.6 7.1 8.2 91 0.7 S 11 13 6 7 1021.2 1020.3 0.0
28/06:00am 9.9 7.0 8.3 90 0.8 SSW 13 17 7 9 1021.0 1020.1 0.0
28/05:30am 10.3 7.9 8.7 90 0.8 SW 11 15 6 8 1020.5 1019.6 0.0
28/05:00am 10.1 7.7 8.5 90 0.8 WSW 11 15 6 8 1020.4 1019.5 0.0
28/04:30am 10.3 10.0 8.6 89 0.8 CALM 0 0 0 0 1020.1 1019.2 0.0
28/04:00am 10.8 9.3 9.1 89 0.9 ESE 7 9 4 5 1019.8 1018.9 0.0
28/03:30am 10.9 8.6 9.0 88 1.0 E 11 11 6 6 1019.8 1018.9 0.0
28/03:00am 11.3 9.1 9.4 88 1.0 ESE 11 13 6 7 1019.7 1018.8 0.0
28/02:30am 11.6 9.5 9.7 88 1.0 ESE 11 13 6 7 1019.9 1019.0 0.0
28/02:00am 11.8 9.6 9.5 86 1.2 ESE 11 13 6 7 1020.1 1019.2 0.0
28/01:30am 12.3 9.9 9.9 85 1.2 ESE 13 15 7 8 1020.2 1019.3 0.0
28/01:00am 12.6 10.1 9.8 83 1.4 ESE 13 15 7 8 1020.2 1019.3 0.0
28/12:30am 13.3 11.3 10.1 81 1.7 SE 11 13 6 7 1020.3 1019.4 0.0
28/12:00am 13.6 11.6 10.0 79 1.9 SE 11 15 6 8 1020.3 1019.4 0.0
 
Date/Time
WST
Temp
°C
App
Temp
°C
Dew
Point
Rel
Hum
%
Delta-T
°C
Wind Press
QNH
hPa
Press
MSL
hPa
Rain
since 9 am
mm
Dir
 
Spd
km/h
Gust
km/h
Spd
kts
Gust
kts
27/11:30pm 14.0 11.6 10.0 77 2.1 SE 13 17 7 9 1020.4 1019.5 0.0
27/11:00pm 14.4 12.0 10.2 76 2.2 ESE 13 17 7 9 1020.6 1019.7 0.0
27/10:30pm 15.0 12.6 10.2 73 2.5 ESE 13 15 7 8 1020.8 1019.9 0.0
27/10:00pm 15.5 13.2 10.3 71 2.8 ESE 13 15 7 8 1020.9 1020.0 0.0
27/09:30pm 15.8 13.8 11.4 75 2.4 ESE 13 17 7 9 1021.0 1020.1 0.0
27/09:00pm 16.3 14.7 11.7 74 2.5 ESE 11 13 6 7 1020.9 1020.0 0.0
27/08:30pm 16.6 15.0 11.7 73 2.7 SE 11 15 6 8 1020.8 1019.9 0.0
27/08:00pm 17.6 16.4 11.6 68 3.3 S 9 13 5 7 1020.6 1019.7 0.0
27/07:30pm 18.6 16.7 11.7 64 3.8 SSW 13 17 7 9 1020.2 1019.3 0.0
27/07:00pm 19.8 17.8 11.6 59 4.6 SSW 13 26 7 14 1019.5 1018.7 0.0
27/06:30pm 19.7 17.4 10.4 55 5.1 SW 13 22 7 12 1019.1 1018.2 0.0
27/06:00pm 21.2 19.7 10.4 50 5.9 S 9 11 5 6 1019.1 1018.2 0.0
27/05:30pm 23.1 21.1 8.8 40 7.7 S 9 13 5 7 1019.0 1018.1 0.0
27/05:00pm 24.0 20.7 8.0 36 8.6 SE 15 26 8 14 1019.0 1018.1 0.0
27/04:30pm 24.1 21.2 8.1 36 8.6 S 13 19 7 10 1018.9 1018.0 0.0
27/04:00pm 24.7 22.5 9.4 38 8.4 SE 11 17 6 9 1018.8 1017.9 0.0
27/03:30pm 24.8 22.7 9.9 39 8.3 SE 11 20 6 11 1018.9 1018.0 0.0
27/03:00pm 24.6 21.9 10.5 41 7.9 SE 15 26 8 14 1019.1 1018.2 0.0
27/02:30pm 24.5 22.5 10.0 40 8.1 SE 11 24 6 13 1019.2 1018.3 0.0
27/02:00pm 24.0 21.7 10.3 42 7.6 SE 13 24 7 13 1019.3 1018.4 0.0
27/01:30pm 23.8 21.9 10.5 43 7.4 SE 11 26 6 14 1019.7 1018.8 0.0
27/01:00pm 23.4 22.1 11.1 46 6.9 SSE 9 15 5 8 1020.0 1019.1 0.0
27/12:30pm 23.0 21.3 11.1 47 6.7 ESE 11 19 6 10 1020.5 1019.6 0.0
27/12:00pm 22.3 20.5 10.8 48 6.4 SE 11 17 6 9 1020.9 1020.0 0.0
27/11:30am 22.1 20.5 11.5 51 6.0 ENE 11 20 6 11 1021.1 1020.2 0.0
27/11:00am 21.7 19.4 11.7 53 5.6 E 15 30 8 16 1021.4 1020.5 0.0
27/10:30am 21.4 19.7 12.5 57 5.1 ESE 13 20 7 11 1021.8 1020.9 0.0

Other Formats:

Comma delimited format used in spreadsheet applications
http://www.bom.gov.au/fwo/IDW60801/IDW60801.94620.axf

JavaScript Object Notation format (JSON) in row-major order
http://www.bom.gov.au/fwo/IDW60801/IDW60801.94620.json